Time;durP1;ratioP1;P1;durP2;ratioP2;P2;SDS_P1;SDS_P2;PMS_P1;PMS_P2;Temp;Humidity;BMP_temperature;BMP_pressure;BME280_temperature;BME280_humidity;BME280_pressure;Samples;Min_cycle;Max_cycle;Signal;HPM_P1;HPM_P2
2022/08/26 00:01:24;;;;;;;26.65;13.63;;;;;;;21.93;56.45;100088.06;5030585;28;20049;-40
2022/08/26 00:03:50;;;;;;;25.05;13.95;;;;;;;21.92;56.61;100085.53;5037502;28;20091;-41
2022/08/26 00:06:16;;;;;;;31.63;15.15;;;;;;;21.85;56.48;100081.66;5041459;28;20125;-41
2022/08/26 00:08:43;;;;;;;25.17;13.52;;;;;;;21.86;56.51;100078.91;5031646;28;20152;-41
2022/08/26 00:11:09;;;;;;;32.45;14.25;;;;;;;21.87;56.53;100085.03;5028892;28;20064;-41
2022/08/26 00:13:35;;;;;;;27.38;14.05;;;;;;;21.84;56.67;100091.41;5029873;28;20099;-41
2022/08/26 00:16:02;;;;;;;29.58;14.50;;;;;;;21.82;56.58;100087.19;5030252;28;20037;-41
2022/08/26 00:18:28;;;;;;;25.88;13.75;;;;;;;21.81;57.00;100089.00;5030223;28;20049;-42
2022/08/26 00:20:54;;;;;;;27.52;14.48;;;;;;;21.79;56.81;100090.91;5044815;28;20049;-42
2022/08/26 00:23:20;;;;;;;26.13;13.68;;;;;;;21.79;56.81;100092.69;5044624;28;20047;-41
2022/08/26 00:25:46;;;;;;;24.30;14.68;;;;;;;21.79;56.78;100092.69;5038164;28;20456;-42
2022/08/26 00:28:12;;;;;;;23.80;14.40;;;;;;;21.58;56.72;100060.72;5029949;28;20196;-40
2022/08/26 00:30:38;;;;;;;23.00;13.73;;;;;;;21.82;56.70;100092.47;5029874;28;20037;-41
2022/08/26 00:33:04;;;;;;;25.15;13.85;;;;;;;21.84;56.76;100095.84;5030178;28;20052;-44
2022/08/26 00:35:31;;;;;;;26.05;13.88;;;;;;;21.86;56.92;100094.78;5029739;28;20068;-42
2022/08/26 00:37:58;;;;;;;23.42;13.93;;;;;;;21.86;56.65;100102.72;5029837;28;20196;-41
2022/08/26 00:40:31;;;;;;;21.80;13.50;;;;;;;21.86;56.85;100099.22;5029966;28;20045;-42
2022/08/26 00:42:57;;;;;;;30.75;14.93;;;;;;;21.85;56.87;100101.03;5042365;28;20067;-42
2022/08/26 00:45:23;;;;;;;21.92;13.10;;;;;;;21.67;56.73;100078.56;5032076;28;20473;-40
2022/08/26 00:47:53;;;;;;;23.38;13.60;;;;;;;21.80;57.02;100099.69;5038189;28;20049;-42
2022/08/26 00:50:24;;;;;;;24.00;14.23;;;;;;;21.62;57.19;100077.19;5048642;28;20072;-41
2022/08/26 00:52:51;;;;;;;23.75;13.70;;;;;;;21.76;57.20;100101.72;5028961;28;20132;-42
2022/08/26 00:55:29;;;;;;;23.25;13.80;;;;;;;21.74;57.27;100103.63;5028435;28;20551;-41
2022/08/26 00:57:55;;;;;;;28.67;14.00;;;;;;;21.71;57.45;100098.56;5020598;28;20060;-42
2022/08/26 01:00:24;;;;;;;27.73;14.25;;;;;;;21.68;57.54;100093.50;5030578;28;20071;-41
2022/08/26 01:02:50;;;;;;;25.33;13.23;;;;;;;21.69;57.68;100094.34;5032359;28;20096;-42
2022/08/26 01:05:18;;;;;;;19.00;12.85;;;;;;;21.68;57.52;100097.94;5031572;28;20041;-41
2022/08/26 01:07:44;;;;;;;26.02;14.05;;;;;;;21.67;57.92;100101.56;5032172;28;20120;-41
2022/08/26 01:10:16;;;;;;;27.05;13.18;;;;;;;21.65;57.89;100096.38;5031895;28;20029;-42
2022/08/26 01:12:46;;;;;;;22.13;13.10;;;;;;;21.62;58.11;100095.72;5030796;28;20422;-42
2022/08/26 01:15:18;;;;;;;;;;;;;;;21.60;58.06;100087.06;5033061;28;20049;-41
2022/08/26 01:17:44;;;;;;;26.75;13.10;;;;;;;21.54;58.09;100091.88;5032193;28;19979;-41
2022/08/26 01:20:18;;;;;;;18.48;13.07;;;;;;;21.53;58.33;100084.03;5043911;28;20448;-42
2022/08/26 01:22:54;;;;;;;23.15;12.90;;;;;;;21.53;58.59;100089.31;5047461;28;20064;-41
2022/08/26 01:25:21;;;;;;;22.65;13.65;;;;;;;21.52;58.61;100090.28;5051349;28;20037;-41
2022/08/26 01:27:47;;;;;;;21.73;13.27;;;;;;;21.48;58.83;100080.88;5051496;28;20098;-42
2022/08/26 01:30:13;;;;;;;23.17;13.35;;;;;;;21.48;58.96;100091.47;5036393;28;20075;-42
2022/08/26 01:32:39;;;;;;;30.42;14.27;;;;;;;21.47;59.08;100089.75;5020411;28;20043;-42
2022/08/26 01:35:06;;;;;;;22.05;13.60;;;;;;;21.46;59.37;100096.00;5050893;28;20045;-41
2022/08/26 01:37:34;;;;;;;25.27;13.45;;;;;;;21.43;59.40;100090.94;5031353;28;20052;-42
2022/08/26 01:39:59;;;;;;;26.83;14.32;;;;;;;21.43;59.51;100096.25;5039742;28;20040;-41
2022/08/26 01:42:26;;;;;;;23.70;13.18;;;;;;;21.42;59.78;100092.75;5031240;28;20041;-41
2022/08/26 01:44:56;;;;;;;31.30;13.57;;;;;;;21.41;59.95;100092.84;5031085;28;20071;-41
2022/08/26 01:47:25;;;;;;;20.98;14.52;;;;;;;21.39;60.16;100095.63;5031472;28;20037;-41
2022/08/26 01:49:53;;;;;;;29.35;14.23;;;;;;;21.37;60.06;100094.88;5031254;28;20140;-42
2022/08/26 01:52:25;;;;;;;23.25;13.60;;;;;;;21.35;60.48;100086.22;5014711;28;20041;-40
2022/08/26 01:54:52;;;;;;;22.55;13.73;;;;;;;21.04;60.39;100052.34;5032215;28;20040;-42
2022/08/26 01:57:18;;;;;;;28.80;14.30;;;;;;;21.28;60.56;100098.19;5032159;28;20092;-43
2022/08/26 01:59:45;;;;;;;22.05;13.95;;;;;;;21.26;60.66;100092.16;5041733;28;20037;-42
2022/08/26 02:02:10;;;;;;;27.55;14.05;;;;;;;21.24;60.81;100090.59;5029098;28;20037;-42
2022/08/26 02:04:40;;;;;;;25.63;14.25;;;;;;;21.21;60.72;100096.94;5048820;28;20454;-41
2022/08/26 02:07:07;;;;;;;27.60;15.07;;;;;;;21.19;60.79;100095.38;5050724;28;20573;-41
2022/08/26 02:09:37;;;;;;;28.13;15.10;;;;;;;21.20;60.91;100099.72;5031493;28;20425;-41
2022/08/26 02:12:03;;;;;;;28.05;14.50;;;;;;;21.18;60.82;100106.91;5031459;28;20472;-42
2022/08/26 02:14:33;;;;;;;26.30;14.32;;;;;;;21.02;61.04;100084.16;5031284;28;20159;-43
2022/08/26 02:16:59;;;;;;;22.98;15.43;;;;;;;21.16;61.19;100107.00;5031857;28;20141;-42
2022/08/26 02:19:31;;;;;;;27.75;15.98;;;;;;;21.13;61.24;100104.56;5040453;28;20041;-41
2022/08/26 02:22:00;;;;;;;31.73;18.10;;;;;;;21.13;61.05;100101.91;5030486;28;20071;-42
2022/08/26 02:24:28;;;;;;;33.40;19.50;;;;;;;21.14;61.13;100106.28;5031401;28;20065;-41
2022/08/26 02:26:56;;;;;;;23.25;15.50;;;;;;;21.13;61.17;100099.28;5031520;28;20057;-41
2022/08/26 02:29:32;;;;;;;27.67;15.55;;;;;;;21.12;61.36;100101.06;5037748;28;20781;-42
2022/08/26 02:31:58;;;;;;;30.27;16.38;;;;;;;21.13;61.30;100107.19;5045054;28;20041;-40
2022/08/26 02:34:31;;;;;;;37.03;16.52;;;;;;;21.12;61.51;100097.56;5031441;28;20068;-40
2022/08/26 02:36:59;;;;;;;26.15;15.55;;;;;;;21.08;61.48;100094.31;5031440;28;20140;-41
2022/08/26 02:39:25;;;;;;;27.15;15.43;;;;;;;21.11;61.37;100101.16;5038079;28;20097;-40
2022/08/26 02:41:51;;;;;;;25.63;16.17;;;;;;;20.92;61.64;100061.97;5062605;28;20045;-41
2022/08/26 02:44:16;;;;;;;33.60;19.27;;;;;;;21.12;61.87;100095.78;5031014;28;20168;-42
2022/08/26 02:46:42;;;;;;;33.42;16.40;;;;;;;21.12;61.86;100106.34;5030354;28;20502;-41
2022/08/26 02:49:08;;;;;;;30.88;15.88;;;;;;;21.12;61.75;100098.41;5030899;28;20056;-43
2022/08/26 02:51:33;;;;;;;31.50;16.27;;;;;;;21.13;62.08;100100.13;5029514;28;20029;-41
2022/08/26 02:53:59;;;;;;;31.95;15.93;;;;;;;21.13;61.89;100102.75;5030243;28;20061;-41
2022/08/26 02:56:25;;;;;;;29.48;16.85;;;;;;;21.14;61.97;100106.28;5030835;28;20060;-42
2022/08/26 02:58:51;;;;;;;28.70;16.83;;;;;;;21.19;62.13;100105.94;5040810;28;20037;-41
2022/08/26 03:01:31;;;;;;;30.80;16.52;;;;;;;21.16;62.30;100099.06;5031005;28;20041;-42
2022/08/26 03:03:57;;;;;;;32.40;16.75;;;;;;;20.95;62.05;100063.53;5047943;28;20048;-42
2022/08/26 03:06:23;;;;;;;26.23;16.77;;;;;;;21.24;62.31;100106.47;5048705;28;20097;-42
2022/08/26 03:08:50;;;;;;;29.08;16.05;;;;;;;21.25;62.40;100110.81;5048085;28;20518;-42
2022/08/26 03:11:17;;;;;;;28.50;16.45;;;;;;;21.25;62.55;100103.69;5030197;28;20579;-41
2022/08/26 03:13:43;;;;;;;31.77;16.77;;;;;;;21.26;62.52;100105.38;5030457;28;20056;-42
2022/08/26 03:16:09;;;;;;;30.73;15.98;;;;;;;21.28;62.45;100108.78;5030732;28;20551;-42
2022/08/26 03:18:35;;;;;;;34.42;18.13;;;;;;;21.33;62.48;100111.09;5030593;28;20128;-42
2022/08/26 03:21:06;;;;;;;25.83;16.77;;;;;;;21.36;62.56;100109.06;5030602;28;20505;-41
2022/08/26 03:23:33;;;;;;;36.30;18.00;;;;;;;21.41;62.49;100114.00;5029229;28;20048;-41
2022/08/26 03:26:00;;;;;;;29.20;17.10;;;;;;;21.20;62.49;100062.69;5029958;28;20049;-44
2022/08/26 03:28:25;;;;;;;31.80;16.95;;;;;;;21.50;62.42;100108.09;5029951;28;20163;-40
2022/08/26 03:30:52;;;;;;;32.45;17.60;;;;;;;21.55;62.35;100109.44;5030456;28;20556;-42
2022/08/26 03:33:18;;;;;;;36.83;18.20;;;;;;;21.63;62.41;100115.94;5030800;28;20160;-41
2022/08/26 03:35:46;;;;;;;34.17;17.60;;;;;;;21.70;62.23;100115.41;5030273;28;20083;-43
2022/08/26 03:38:12;;;;;;;36.47;19.13;;;;;;;21.76;62.16;100112.31;5049057;28;20136;-43
2022/08/26 03:40:39;;;;;;;28.98;18.90;;;;;;;21.82;61.78;100114.50;5049613;28;20131;-41
2022/08/26 03:43:05;;;;;;;35.72;17.88;;;;;;;21.87;61.75;100112.38;5048650;28;20037;-42
2022/08/26 03:45:32;;;;;;;35.22;19.95;;;;;;;21.92;61.71;100114.66;5034323;28;20087;-44
2022/08/26 03:47:58;;;;;;;33.60;18.55;;;;;;;21.94;61.85;100116.25;5030403;28;20044;-42
2022/08/26 03:50:25;;;;;;;34.20;19.42;;;;;;;22.00;61.73;100122.06;5030397;28;20559;-43
2022/08/26 03:52:52;;;;;;;33.72;19.23;;;;;;;22.05;61.66;100117.25;5030336;28;20501;-43
2022/08/26 03:55:19;;;;;;;40.17;19.25;;;;;;;22.09;61.77;100121.34;5030488;28;20073;-42
2022/08/26 03:57:45;;;;;;;35.03;18.77;;;;;;;22.10;61.89;100117.75;5030271;28;20622;-41
2022/08/26 04:00:14;;;;;;;44.30;21.02;;;;;;;22.14;61.49;100121.91;5030046;28;20052;-41
2022/08/26 04:02:44;;;;;;;37.35;20.65;;;;;;;22.17;61.19;100125.16;5030406;28;20425;-41
2022/08/26 04:05:12;;;;;;;33.50;19.38;;;;;;;22.22;61.20;100128.28;5030006;28;20080;-42
2022/08/26 04:07:39;;;;;;;45.33;21.83;;;;;;;22.28;61.18;100124.34;5012331;28;20524;-41
2022/08/26 04:10:06;;;;;;;39.92;21.67;;;;;;;22.32;61.28;100128.44;5028437;28;20173;-42
2022/08/26 04:12:32;;;;;;;34.13;20.45;;;;;;;22.38;61.32;100127.97;5012643;28;20073;-42
2022/08/26 04:14:58;;;;;;;35.55;20.67;;;;;;;22.43;61.17;100127.63;5011806;28;20056;-41
2022/08/26 04:17:25;;;;;;;39.55;20.67;;;;;;;22.52;61.05;100134.84;5029107;28;20037;-41
2022/08/26 04:19:54;;;;;;;40.38;20.88;;;;;;;22.60;61.03;100125.38;5029990;28;20041;-40
2022/08/26 04:22:20;;;;;;;40.63;20.83;;;;;;;22.71;60.87;100124.59;5029581;28;20148;-41
2022/08/26 04:24:45;;;;;;;41.38;21.48;;;;;;;22.80;60.50;100126.50;5028586;28;20056;-42
2022/08/26 04:27:11;;;;;;;41.83;20.27;;;;;;;22.77;60.20;100110.81;5029731;28;20057;-41
2022/08/26 04:29:40;;;;;;;40.30;21.83;;;;;;;22.95;60.15;100127.13;5028341;28;20125;-40
2022/08/26 04:32:07;;;;;;;41.72;21.30;;;;;;;23.00;59.89;100123.13;5030444;28;20048;-41
2022/08/26 04:34:33;;;;;;;42.60;20.83;;;;;;;23.08;59.92;100126.00;5047288;28;20052;-42
2022/08/26 04:36:59;;;;;;;50.00;24.73;;;;;;;23.18;59.57;100134.13;5044754;28;20547;-42
2022/08/26 04:39:26;;;;;;;49.40;25.55;;;;;;;23.32;58.58;100133.00;5048422;28;20041;-43
2022/08/26 04:41:55;;;;;;;57.13;25.70;;;;;;;23.44;57.58;100132.88;5033728;28;20033;-42
2022/08/26 04:44:23;;;;;;;45.40;24.15;;;;;;;23.59;57.95;100142.28;5033437;28;20130;-41
2022/08/26 04:46:49;;;;;;;49.00;25.05;;;;;;;23.67;57.90;100133.69;5036005;28;20359;-42
2022/08/26 04:49:15;;;;;;;59.08;25.52;;;;;;;23.73;57.38;100133.19;5050516;28;20037;-41
2022/08/26 04:51:40;;;;;;;48.35;25.48;;;;;;;23.77;56.16;100141.75;5032816;28;20048;-42
2022/08/26 04:54:07;;;;;;;53.60;26.25;;;;;;;23.78;55.64;100144.28;5033274;28;20536;-41
2022/08/26 04:56:38;;;;;;;52.13;26.02;;;;;;;23.84;55.17;100143.78;5033254;28;20030;-41
2022/08/26 04:59:07;;;;;;;48.75;25.38;;;;;;;23.93;54.94;100143.00;5032645;28;20038;-41
2022/08/26 05:01:34;;;;;;;;;;;;;;;24.02;54.54;100144.91;5033770;28;20033;-42
2022/08/26 05:04:00;;;;;;;54.95;27.60;;;;;;;24.07;54.46;100148.03;5051522;28;20011;-43
2022/08/26 05:06:26;;;;;;;47.72;25.73;;;;;;;24.15;54.10;100147.41;5053183;28;20508;-41
2022/08/26 05:08:53;;;;;;;48.25;24.20;;;;;;;24.25;53.27;100144.84;5034135;28;20053;-42
2022/08/26 05:11:20;;;;;;;43.78;23.30;;;;;;;24.16;53.05;100119.03;5033466;28;20531;-41
2022/08/26 05:13:46;;;;;;;46.38;23.80;;;;;;;24.41;52.57;100151.41;5032710;28;20076;-42
2022/08/26 05:16:13;;;;;;;46.92;24.10;;;;;;;24.52;52.27;100154.97;5033223;28;20597;-42
2022/08/26 05:18:42;;;;;;;41.33;22.73;;;;;;;24.66;51.98;100147.50;5032718;28;20061;-42
2022/08/26 05:21:18;;;;;;;42.75;22.50;;;;;;;24.76;51.78;100144.91;5030537;28;20037;-41
2022/08/26 05:23:45;;;;;;;47.30;22.42;;;;;;;24.79;51.41;100124.22;5031934;28;20142;-41
2022/08/26 05:26:11;;;;;;;47.97;21.52;;;;;;;25.11;51.33;100156.03;5033046;28;20037;-42
2022/08/26 05:28:37;;;;;;;43.92;19.70;;;;;;;25.27;50.57;100156.41;5038027;28;20057;-42
2022/08/26 05:31:11;;;;;;;45.63;20.42;;;;;;;25.44;49.64;100148.72;5046135;28;20037;-48
2022/08/26 05:33:37;;;;;;;36.55;18.98;;;;;;;25.63;49.63;100157.66;5059400;28;20529;-46
2022/08/26 05:36:11;;;;;;;35.55;19.35;;;;;;;25.79;48.86;100166.94;5032507;28;20136;-49
2022/08/26 05:38:37;;;;;;;45.53;19.13;;;;;;;25.89;48.27;100149.13;5032343;28;20048;-48
2022/08/26 05:41:03;;;;;;;37.45;18.10;;;;;;;25.98;47.99;100140.28;5032031;28;20033;-45
2022/08/26 05:43:29;;;;;;;36.10;17.55;;;;;;;26.25;47.22;100159.13;5031445;28;20184;-47
2022/08/26 05:45:56;;;;;;;38.33;17.83;;;;;;;26.38;46.33;100156.19;5029706;28;20129;-51
2022/08/26 05:48:22;;;;;;;39.58;16.23;;;;;;;26.28;45.51;100118.00;5031218;28;20147;-46
2022/08/26 05:50:50;;;;;;;35.33;15.20;;;;;;;26.69;45.34;100160.34;5031315;28;20421;-48
2022/08/26 05:53:19;;;;;;;27.48;14.82;;;;;;;26.83;44.59;100151.03;5032357;28;20521;-47
2022/08/26 05:55:50;;;;;;;26.05;13.30;;;;;;;27.00;43.94;100155.66;5065355;28;20052;-45
2022/08/26 05:58:19;;;;;;;25.55;11.40;;;;;;;27.16;42.28;100158.53;5035463;28;20063;-45
2022/08/26 06:00:44;;;;;;;;;;;;;;;27.33;40.79;100160.41;5031201;28;20489;-49
2022/08/26 06:03:10;;;;;;;16.30;9.52;;;;;;;27.42;39.39;100156.84;5038632;28;19959;-48
2022/08/26 06:05:38;;;;;;;18.95;10.07;;;;;;;27.31;38.69;100110.81;5051931;28;20043;-45
2022/08/26 06:08:17;;;;;;;25.02;10.13;;;;;;;27.78;38.14;100162.31;5048627;28;20428;-45
2022/08/26 06:10:52;;;;;;;16.05;9.35;;;;;;;28.09;37.41;100154.75;4995745;28;20136;-49
2022/08/26 06:13:28;;;;;;;13.95;8.90;;;;;;;28.48;35.99;100139.19;5030572;28;20041;-47
2022/08/26 06:15:55;;;;;;;15.32;9.73;;;;;;;29.29;35.13;100163.81;5027220;28;20137;-47
2022/08/26 06:18:31;;;;;;;16.77;8.80;;;;;;;30.00;33.46;100160.72;5031045;28;20041;-48
2022/08/26 06:20:58;;;;;;;18.45;9.23;;;;;;;30.51;31.95;100156.94;5027888;28;20076;-49
2022/08/26 06:26:13;;;;;;;14.82;8.63;;;;;;;31.69;29.76;100156.91;5031538;28;20071;-51
2022/08/26 06:28:39;;;;;;;16.70;9.00;;;;;;;32.27;29.18;100148.31;5031033;28;20058;-45
2022/08/26 06:31:05;;;;;;;14.25;8.10;;;;;;;32.90;27.88;100163.22;5031121;28;20037;-36
2022/08/26 06:33:31;;;;;;;10.48;8.27;;;;;;;33.43;27.23;100163.97;5025900;28;20045;-41
2022/08/26 06:35:57;;;;;;;14.45;8.48;;;;;;;34.04;26.58;100154.50;5030654;28;20041;-41
2022/08/26 06:38:23;;;;;;;14.25;8.02;;;;;;;34.47;25.39;100162.63;5031332;28;20030;-39
2022/08/26 06:40:51;;;;;;;13.82;8.48;;;;;;;34.77;24.98;100164.97;5011793;28;20053;-40
2022/08/26 06:43:19;;;;;;;13.88;8.40;;;;;;;35.63;24.54;100158.16;5029237;28;20068;-40
2022/08/26 06:45:45;;;;;;;11.98;8.88;;;;;;;36.31;23.85;100145.44;5030792;28;20095;-41
2022/08/26 06:48:13;;;;;;;18.40;8.38;;;;;;;37.34;22.78;100166.34;5030609;28;20091;-40
2022/08/26 06:50:39;;;;;;;15.13;8.85;;;;;;;38.11;22.06;100162.63;5013718;28;20040;-41
2022/08/26 06:53:06;;;;;;;15.73;8.15;;;;;;;38.50;21.19;100174.28;5029352;28;20044;-42
2022/08/26 06:55:38;;;;;;;12.17;8.70;;;;;;;38.53;20.62;100133.06;5030575;28;20077;-39
2022/08/26 06:58:03;;;;;;;13.32;8.77;;;;;;;38.77;20.38;100164.00;5028419;28;20287;-42
2022/08/26 07:00:30;;;;;;;12.18;8.50;;;;;;;39.32;19.82;100168.41;5028224;28;20041;-40
2022/08/26 07:02:56;;;;;;;22.00;9.15;;;;;;;39.46;19.44;100147.38;5029242;28;20041;-40
2022/08/26 07:05:24;;;;;;;12.32;9.02;;;;;;;39.93;19.51;100170.19;5030280;28;20505;-39
2022/08/26 07:07:51;;;;;;;;;;;;;;;40.72;18.81;100168.13;5029792;28;20521;-39
2022/08/26 07:10:17;;;;;;;12.60;9.52;;;;;;;40.71;18.39;100171.91;5028800;28;19924;-40
2022/08/26 07:12:43;;;;;;;16.25;8.40;;;;;;;41.11;18.26;100174.75;5028720;28;20045;-40
2022/08/26 07:15:10;;;;;;;12.95;8.93;;;;;;;40.76;17.98;100142.03;5029364;28;20045;-40
2022/08/26 07:17:36;;;;;;;17.15;9.63;;;;;;;41.30;17.91;100165.31;5028345;28;20030;-40
2022/08/26 07:20:05;;;;;;;10.30;8.52;;;;;;;42.07;17.35;100168.50;5030133;28;20497;-41
2022/08/26 07:22:31;;;;;;;10.43;7.93;;;;;;;42.77;16.62;100170.75;5029921;28;20592;-42
2022/08/26 07:24:57;;;;;;;15.77;8.93;;;;;;;42.20;16.62;100162.69;5028983;28;20098;-41
2022/08/26 07:27:23;;;;;;;20.02;8.90;;;;;;;42.29;16.78;100165.91;5029229;28;20513;-41
2022/08/26 07:29:49;;;;;;;9.93;8.25;;;;;;;42.89;16.14;100163.28;5019199;28;20517;-40
2022/08/26 07:32:17;;;;;;;12.45;8.88;;;;;;;43.28;15.85;100169.59;5025475;28;20033;-42
2022/08/26 07:34:44;;;;;;;13.95;8.98;;;;;;;42.91;15.87;100164.69;5028365;28;20095;-42
2022/08/26 07:37:30;;;;;;;18.98;9.70;;;;;;;42.81;15.87;100161.00;5029285;28;20079;-42
2022/08/26 07:39:56;;;;;;;15.27;8.98;;;;;;;42.94;15.97;100163.34;5025426;28;20049;-41
2022/08/26 07:42:23;;;;;;;10.68;8.43;;;;;;;42.56;15.98;100150.44;5027448;28;20057;-41
2022/08/26 07:44:49;;;;;;;15.35;8.95;;;;;;;42.35;16.18;100132.91;5026313;28;20506;-43
2022/08/26 07:47:15;;;;;;;13.45;8.70;;;;;;;42.94;16.00;100139.56;5027277;28;20099;-40
2022/08/26 07:49:41;;;;;;;12.82;9.15;;;;;;;43.88;15.11;100153.88;5025708;28;20076;-40
2022/08/26 07:52:08;;;;;;;14.70;8.63;;;;;;;43.75;14.98;100158.91;5026974;28;20529;-42
2022/08/26 07:54:36;;;;;;;12.20;8.88;;;;;;;44.28;14.67;100149.88;5028238;28;20094;-43
2022/08/26 07:57:03;;;;;;;15.80;9.68;;;;;;;44.76;14.38;100162.56;5028568;28;20116;-40
2022/08/26 07:59:28;;;;;;;12.80;9.45;;;;;;;44.82;14.08;100142.28;5028334;28;20076;-41
2022/08/26 08:01:56;;;;;;;15.40;9.15;;;;;;;45.08;13.63;100157.00;5029452;28;20111;-42
2022/08/26 08:04:22;;;;;;;16.38;8.55;;;;;;;45.22;13.40;100154.59;5026879;28;20060;-41
2022/08/26 08:06:48;;;;;;;9.27;8.25;;;;;;;45.44;13.42;100155.22;5029791;28;20037;-43
2022/08/26 08:09:14;;;;;;;10.23;8.13;;;;;;;45.19;12.99;100125.72;5029423;28;20072;-43
2022/08/26 08:11:40;;;;;;;11.07;7.68;;;;;;;44.92;13.21;100156.06;5032480;28;20578;-42
2022/08/26 08:14:06;;;;;;;8.53;7.57;;;;;;;44.52;13.22;100158.53;5033748;28;20040;-41
2022/08/26 08:16:32;;;;;;;10.45;7.85;;;;;;;43.73;13.58;100114.50;5033655;28;20033;-41
2022/08/26 08:18:58;;;;;;;10.55;8.02;;;;;;;44.49;13.24;100148.09;5031766;28;20536;-40
2022/08/26 08:21:24;;;;;;;11.18;8.25;;;;;;;44.68;13.20;100143.84;5033289;28;20037;-42
2022/08/26 08:23:54;;;;;;;12.82;8.85;;;;;;;44.58;13.18;100149.25;5032972;28;20051;-43
2022/08/26 08:26:21;;;;;;;9.77;8.52;;;;;;;44.43;13.46;100141.75;5016319;28;20041;-42
2022/08/26 08:28:47;;;;;;;10.88;9.18;;;;;;;44.88;13.35;100133.00;5032939;28;20061;-41
2022/08/26 08:31:24;;;;;;;10.10;9.07;;;;;;;45.41;13.04;100123.66;5048380;28;20125;-41
2022/08/26 08:33:51;;;;;;;11.27;8.57;;;;;;;45.71;13.19;100144.84;5030247;28;20051;-41
2022/08/26 08:36:16;;;;;;;22.15;9.48;;;;;;;45.71;12.98;100141.28;5032516;28;20071;-41
2022/08/26 08:38:43;;;;;;;11.10;9.20;;;;;;;45.82;12.59;100142.97;5031842;28;20073;-45
2022/08/26 08:41:44;;;;;;;15.23;8.75;;;;;;;45.78;12.27;100139.94;5030860;28;20037;-43
2022/08/26 08:44:15;;;;;;;19.17;8.70;;;;;;;45.80;12.70;100135.00;5027793;28;20053;-44
2022/08/26 08:46:41;;;;;;;12.07;9.02;;;;;;;45.97;12.26;100137.50;5032632;28;20140;-42
2022/08/26 08:49:08;;;;;;;9.53;8.53;;;;;;;45.73;12.54;100130.84;5053652;28;20048;-42
2022/08/26 08:51:40;;;;;;;11.30;8.17;;;;;;;46.01;12.53;100126.78;5036593;28;20287;-42
2022/08/26 08:54:07;;;;;;;11.35;8.45;;;;;;;45.76;12.48;100135.78;5031999;28;20041;-44
2022/08/26 08:56:45;;;;;;;9.60;8.57;;;;;;;45.00;12.67;100127.28;5034045;28;20049;-42
2022/08/26 08:59:26;;;;;;;9.48;8.65;;;;;;;45.17;12.60;100132.59;5031902;28;20048;-39
2022/08/26 09:02:23;;;;;;;12.13;8.82;;;;;;;45.34;12.33;100123.03;5049794;28;20568;-39
2022/08/26 09:04:58;;;;;;;13.80;8.60;;;;;;;45.38;12.15;100135.13;5039552;28;20037;-39
2022/08/26 09:07:29;;;;;;;26.80;9.82;;;;;;;45.07;12.56;100128.72;5031687;28;20519;-39
2022/08/26 09:10:27;;;;;;;12.75;8.60;;;;;;;45.44;12.26;100122.25;5030847;28;20038;-40
2022/08/26 09:12:53;;;;;;;15.90;8.30;;;;;;;45.37;12.47;100114.28;5031132;28;20052;-40
2022/08/26 09:15:35;;;;;;;11.70;8.15;;;;;;;44.87;12.48;100125.84;5031181;28;20412;-39
2022/08/26 09:18:09;;;;;;;10.45;7.63;;;;;;;44.86;12.38;100115.94;5032201;28;20092;-39
2022/08/26 09:20:53;;;;;;;12.20;8.75;;;;;;;45.23;11.86;100132.34;5030139;28;20041;-40
2022/08/26 09:23:19;;;;;;;11.52;8.48;;;;;;;44.84;12.38;100117.31;5031474;28;20086;-39
2022/08/26 09:25:52;;;;;;;9.90;8.95;;;;;;;45.47;12.02;100084.09;5032402;28;20042;-39
2022/08/26 09:28:20;;;;;;;11.93;8.65;;;;;;;46.29;11.61;100110.56;5030994;28;20063;-39
2022/08/26 09:30:58;;;;;;;11.93;8.82;;;;;;;46.69;11.69;100112.41;5029679;28;20120;-41
2022/08/26 09:33:28;;;;;;;14.32;8.80;;;;;;;47.26;11.29;100113.88;5047743;28;20382;-49
2022/08/26 09:36:13;;;;;;;9.73;8.68;;;;;;;48.31;10.77;100107.91;5028930;28;20124;-45
2022/08/26 09:38:40;;;;;;;11.35;9.13;;;;;;;48.34;10.76;100115.59;5030073;28;20137;-51
2022/08/26 09:41:24;;;;;;;14.75;9.27;;;;;;;45.88;11.56;100106.97;5009623;28;20124;-47
2022/08/26 09:44:20;;;;;;;9.73;8.65;;;;;;;44.43;12.60;100097.88;5011364;28;20454;-46
2022/08/26 09:46:54;;;;;;;14.05;9.27;;;;;;;44.11;12.66;100095.13;5009398;28;20052;-46
2022/08/26 09:49:26;;;;;;;12.15;8.77;;;;;;;44.70;12.69;100098.56;5031560;28;20437;-49
2022/08/26 09:52:15;;;;;;;11.25;8.57;;;;;;;46.29;11.75;100098.72;5049896;28;20036;-50
2022/08/26 09:54:43;;;;;;;9.90;9.00;;;;;;;46.52;11.57;100081.63;5048966;28;20056;-50
2022/08/26 09:57:19;;;;;;;12.05;9.43;;;;;;;46.89;11.27;100105.22;5039781;28;20079;-51
2022/08/26 09:59:45;;;;;;;11.18;8.88;;;;;;;47.42;11.06;100101.69;5049647;28;20044;-49
2022/08/26 10:02:34;;;;;;;14.18;9.15;;;;;;;46.64;11.09;100106.94;5048113;28;20041;-48
2022/08/26 10:05:05;;;;;;;9.80;8.25;;;;;;;45.67;11.67;100102.53;5033229;28;20049;-49
2022/08/26 10:07:39;;;;;;;14.65;9.07;;;;;;;45.31;12.00;100100.78;5032053;28;20079;-45
2022/08/26 10:10:10;;;;;;;11.88;8.80;;;;;;;45.19;11.67;100095.53;5032247;28;20055;-47
2022/08/26 10:12:42;;;;;;;9.80;8.80;;;;;;;45.69;11.65;100089.34;5032051;28;20034;-49
2022/08/26 10:15:09;;;;;;;9.80;8.82;;;;;;;46.35;11.24;100098.44;5042767;28;20049;-45
2022/08/26 10:17:59;;;;;;;13.98;8.68;;;;;;;46.51;10.85;100088.22;5027206;28;20049;-46
2022/08/26 10:20:27;;;;;;;9.98;8.98;;;;;;;46.93;10.67;100081.53;5030549;28;20044;-49
2022/08/26 10:23:07;;;;;;;18.20;9.32;;;;;;;47.32;10.46;100090.72;5030468;28;20119;-46
2022/08/26 10:25:42;;;;;;;13.90;9.50;;;;;;;47.04;10.53;100058.34;5029346;28;20073;-47
2022/08/26 10:28:45;;;;;;;10.68;8.18;;;;;;;45.63;11.38;100079.44;5030333;28;20544;-48
2022/08/26 10:31:48;;;;;;;13.02;9.45;;;;;;;42.83;13.17;100061.16;5030102;28;20389;-46
2022/08/26 10:34:15;;;;;;;9.52;8.20;;;;;;;43.96;12.66;100078.56;5031311;28;20040;-50
2022/08/26 10:36:56;;;;;;;10.20;8.38;;;;;;;42.38;13.63;100057.78;5031393;28;20080;-48
2022/08/26 10:39:36;;;;;;;15.95;14.43;;;;;;;43.81;13.04;100059.25;5031368;28;20132;-46
2022/08/26 10:42:06;;;;;;;12.02;9.65;;;;;;;45.37;11.98;100069.50;5029941;28;20052;-48
2022/08/26 10:44:33;;;;;;;11.35;9.15;;;;;;;46.01;11.37;100063.53;5049310;28;20138;-46
2022/08/26 10:47:01;;;;;;;;;;;;;;;45.41;12.07;100063.22;5045630;28;20098;-48
2022/08/26 10:49:27;;;;;;;9.82;8.23;;;;;;;43.00;13.42;100058.34;5032398;28;19935;-50
2022/08/26 10:52:07;;;;;;;10.27;8.07;;;;;;;40.81;14.88;100057.56;5031182;28;20048;-48
2022/08/26 10:55:05;;;;;;;13.98;8.38;;;;;;;39.07;16.08;100049.88;5049317;28;20059;-46
2022/08/26 10:57:33;;;;;;;12.68;8.15;;;;;;;38.78;16.42;100043.31;5031225;28;20593;-47
2022/08/26 11:01:40;;;;;;;9.40;8.35;;;;;;;38.48;16.97;100044.03;5030799;28;20418;-45
2022/08/26 11:02:47;;;;;;;;;;;;;;;37.66;17.19;100031.56;5036074;28;20045;-44
2022/08/26 11:05:22;;;;;;;9.15;8.07;;;;;;;36.89;17.69;100037.16;5030064;28;19921;-45
2022/08/26 11:07:54;;;;;;;11.65;8.25;;;;;;;38.12;16.80;100031.22;5030201;28;20045;-46
2022/08/26 11:10:21;;;;;;;11.02;8.52;;;;;;;39.96;15.46;100029.97;5044489;28;20095;-49
2022/08/26 11:13:00;;;;;;;12.95;8.80;;;;;;;41.21;14.42;100031.13;5035307;28;20047;-45
2022/08/26 11:15:27;;;;;;;9.55;8.65;;;;;;;42.42;13.84;100034.31;5049235;28;20045;-47
2022/08/26 11:17:56;;;;;;;8.90;8.00;;;;;;;42.65;12.96;100034.91;5046533;28;20433;-47
2022/08/26 11:20:22;;;;;;;16.65;8.20;;;;;;;42.38;12.99;100044.94;5035565;28;20041;-48
2022/08/26 11:22:52;;;;;;;12.82;7.00;;;;;;;41.16;12.47;100036.50;5048415;28;20123;-47
2022/08/26 11:25:20;;;;;;;7.88;6.47;;;;;;;39.33;13.63;100014.16;5063326;28;20041;-46
2022/08/26 11:27:51;;;;;;;8.88;6.22;;;;;;;38.66;14.78;100012.50;5047478;28;20045;-48